sensor_id;sensor_type;location;lat;lon;timestamp;P1;durP1;ratioP1;P2;durP2;ratioP2
2416;SDS011;1219;48.736;9.330;2023-06-26T00:01:08;9.20;;;8.30;;
2416;SDS011;1219;48.736;9.330;2023-06-26T00:03:34;9.13;;;8.20;;
2416;SDS011;1219;48.736;9.330;2023-06-26T00:06:00;8.00;;;7.20;;
2416;SDS011;1219;48.736;9.330;2023-06-26T00:08:27;8.67;;;7.80;;
2416;SDS011;1219;48.736;9.330;2023-06-26T00:10:53;8.17;;;7.47;;
2416;SDS011;1219;48.736;9.330;2023-06-26T00:13:19;8.77;;;7.97;;
2416;SDS011;1219;48.736;9.330;2023-06-26T00:15:45;8.50;;;7.70;;
2416;SDS011;1219;48.736;9.330;2023-06-26T00:18:11;9.20;;;8.20;;
2416;SDS011;1219;48.736;9.330;2023-06-26T00:20:37;7.93;;;7.13;;
2416;SDS011;1219;48.736;9.330;2023-06-26T00:23:02;9.23;;;8.33;;
2416;SDS011;1219;48.736;9.330;2023-06-26T00:25:33;11.43;;;10.23;;
2416;SDS011;1219;48.736;9.330;2023-06-26T00:27:58;11.60;;;8.83;;
2416;SDS011;1219;48.736;9.330;2023-06-26T00:30:24;8.80;;;8.00;;
2416;SDS011;1219;48.736;9.330;2023-06-26T00:32:50;7.70;;;7.00;;
2416;SDS011;1219;48.736;9.330;2023-06-26T00:35:16;8.70;;;7.87;;
2416;SDS011;1219;48.736;9.330;2023-06-26T00:37:42;8.90;;;8.03;;
2416;SDS011;1219;48.736;9.330;2023-06-26T00:40:08;9.47;;;8.47;;
2416;SDS011;1219;48.736;9.330;2023-06-26T00:42:35;8.07;;;7.37;;
2416;SDS011;1219;48.736;9.330;2023-06-26T00:45:01;8.10;;;7.40;;
2416;SDS011;1219;48.736;9.330;2023-06-26T00:47:27;10.23;;;8.77;;
2416;SDS011;1219;48.736;9.330;2023-06-26T00:49:53;9.37;;;8.30;;
2416;SDS011;1219;48.736;9.330;2023-06-26T00:52:20;9.30;;;8.23;;
2416;SDS011;1219;48.736;9.330;2023-06-26T00:54:46;8.10;;;6.77;;
2416;SDS011;1219;48.736;9.330;2023-06-26T00:57:12;8.37;;;7.67;;
2416;SDS011;1219;48.736;9.330;2023-06-26T00:59:38;8.77;;;7.97;;
2416;SDS011;1219;48.736;9.330;2023-06-26T01:02:04;9.67;;;8.80;;
2416;SDS011;1219;48.736;9.330;2023-06-26T01:04:31;10.00;;;8.87;;
2416;SDS011;1219;48.736;9.330;2023-06-26T01:06:57;9.97;;;8.97;;
2416;SDS011;1219;48.736;9.330;2023-06-26T01:09:25;9.23;;;8.33;;
2416;SDS011;1219;48.736;9.330;2023-06-26T01:11:51;8.23;;;7.50;;
2416;SDS011;1219;48.736;9.330;2023-06-26T01:14:17;8.80;;;7.97;;
2416;SDS011;1219;48.736;9.330;2023-06-26T01:16:43;9.33;;;8.37;;
2416;SDS011;1219;48.736;9.330;2023-06-26T01:19:19;8.77;;;7.90;;
2416;SDS011;1219;48.736;9.330;2023-06-26T01:21:51;8.70;;;7.90;;
2416;SDS011;1219;48.736;9.330;2023-06-26T01:24:18;8.70;;;7.80;;
2416;SDS011;1219;48.736;9.330;2023-06-26T01:26:52;8.97;;;8.13;;
2416;SDS011;1219;48.736;9.330;2023-06-26T01:29:18;9.60;;;8.63;;
2416;SDS011;1219;48.736;9.330;2023-06-26T01:31:45;9.00;;;8.20;;
2416;SDS011;1219;48.736;9.330;2023-06-26T01:34:15;8.90;;;8.07;;
2416;SDS011;1219;48.736;9.330;2023-06-26T01:36:41;9.40;;;8.50;;
2416;SDS011;1219;48.736;9.330;2023-06-26T01:39:07;8.63;;;7.73;;
2416;SDS011;1219;48.736;9.330;2023-06-26T01:41:33;9.77;;;8.60;;
2416;SDS011;1219;48.736;9.330;2023-06-26T01:51:58;11.43;;;8.43;;
2416;SDS011;1219;48.736;9.330;2023-06-26T01:54:28;8.93;;;8.00;;
2416;SDS011;1219;48.736;9.330;2023-06-26T01:56:55;10.20;;;8.50;;
2416;SDS011;1219;48.736;9.330;2023-06-26T01:59:23;9.47;;;8.20;;
2416;SDS011;1219;48.736;9.330;2023-06-26T02:01:49;10.00;;;8.50;;
2416;SDS011;1219;48.736;9.330;2023-06-26T02:04:16;8.00;;;7.30;;
2416;SDS011;1219;48.736;9.330;2023-06-26T02:06:41;8.00;;;7.20;;
2416;SDS011;1219;48.736;9.330;2023-06-26T02:09:07;9.40;;;8.13;;
2416;SDS011;1219;48.736;9.330;2023-06-26T02:11:33;9.13;;;8.23;;
2416;SDS011;1219;48.736;9.330;2023-06-26T02:14:00;9.30;;;8.07;;
2416;SDS011;1219;48.736;9.330;2023-06-26T02:16:26;10.23;;;9.20;;
2416;SDS011;1219;48.736;9.330;2023-06-26T02:18:51;9.37;;;8.47;;
2416;SDS011;1219;48.736;9.330;2023-06-26T02:21:17;9.07;;;8.27;;
2416;SDS011;1219;48.736;9.330;2023-06-26T02:23:43;9.10;;;8.27;;
2416;SDS011;1219;48.736;9.330;2023-06-26T02:26:09;7.83;;;7.10;;
2416;SDS011;1219;48.736;9.330;2023-06-26T02:28:36;7.93;;;7.20;;
2416;SDS011;1219;48.736;9.330;2023-06-26T02:31:02;9.93;;;8.33;;
2416;SDS011;1219;48.736;9.330;2023-06-26T02:33:28;11.47;;;9.40;;
2416;SDS011;1219;48.736;9.330;2023-06-26T02:35:54;10.33;;;8.47;;
2416;SDS011;1219;48.736;9.330;2023-06-26T02:38:20;16.07;;;8.20;;
2416;SDS011;1219;48.736;9.330;2023-06-26T02:40:45;9.27;;;7.90;;
2416;SDS011;1219;48.736;9.330;2023-06-26T02:43:11;9.83;;;8.83;;
2416;SDS011;1219;48.736;9.330;2023-06-26T02:45:37;9.50;;;8.50;;
2416;SDS011;1219;48.736;9.330;2023-06-26T02:48:03;11.40;;;8.73;;
2416;SDS011;1219;48.736;9.330;2023-06-26T02:50:29;9.37;;;8.47;;
2416;SDS011;1219;48.736;9.330;2023-06-26T02:52:55;9.63;;;8.00;;
2416;SDS011;1219;48.736;9.330;2023-06-26T02:55:21;9.17;;;8.27;;
2416;SDS011;1219;48.736;9.330;2023-06-26T02:57:47;9.93;;;8.93;;
2416;SDS011;1219;48.736;9.330;2023-06-26T03:00:13;8.33;;;7.60;;
2416;SDS011;1219;48.736;9.330;2023-06-26T03:02:40;10.27;;;9.23;;
2416;SDS011;1219;48.736;9.330;2023-06-26T03:05:06;10.30;;;9.20;;
2416;SDS011;1219;48.736;9.330;2023-06-26T03:07:32;9.33;;;8.53;;
2416;SDS011;1219;48.736;9.330;2023-06-26T03:09:58;8.80;;;7.93;;
2416;SDS011;1219;48.736;9.330;2023-06-26T03:12:24;9.20;;;8.30;;
2416;SDS011;1219;48.736;9.330;2023-06-26T03:14:50;9.83;;;8.83;;
2416;SDS011;1219;48.736;9.330;2023-06-26T03:17:16;10.13;;;9.13;;
2416;SDS011;1219;48.736;9.330;2023-06-26T03:19:42;11.63;;;9.50;;
2416;SDS011;1219;48.736;9.330;2023-06-26T03:22:10;9.60;;;8.67;;
2416;SDS011;1219;48.736;9.330;2023-06-26T03:24:35;9.17;;;8.27;;
2416;SDS011;1219;48.736;9.330;2023-06-26T03:27:01;9.40;;;8.50;;
2416;SDS011;1219;48.736;9.330;2023-06-26T03:29:28;9.30;;;8.40;;
2416;SDS011;1219;48.736;9.330;2023-06-26T03:31:54;9.13;;;8.07;;
2416;SDS011;1219;48.736;9.330;2023-06-26T03:34:21;8.83;;;7.93;;
2416;SDS011;1219;48.736;9.330;2023-06-26T03:36:46;9.37;;;8.47;;
2416;SDS011;1219;48.736;9.330;2023-06-26T03:39:12;9.73;;;8.83;;
2416;SDS011;1219;48.736;9.330;2023-06-26T03:41:38;9.97;;;8.93;;
2416;SDS011;1219;48.736;9.330;2023-06-26T03:44:04;10.90;;;8.53;;
2416;SDS011;1219;48.736;9.330;2023-06-26T03:46:30;9.90;;;8.90;;
2416;SDS011;1219;48.736;9.330;2023-06-26T03:48:56;11.10;;;8.67;;
2416;SDS011;1219;48.736;9.330;2023-06-26T03:51:22;10.07;;;9.07;;
2416;SDS011;1219;48.736;9.330;2023-06-26T03:53:48;10.30;;;9.20;;
2416;SDS011;1219;48.736;9.330;2023-06-26T03:56:14;11.13;;;10.00;;
2416;SDS011;1219;48.736;9.330;2023-06-26T03:58:40;9.37;;;8.43;;
2416;SDS011;1219;48.736;9.330;2023-06-26T04:01:06;11.13;;;8.30;;
2416;SDS011;1219;48.736;9.330;2023-06-26T04:03:32;9.77;;;8.90;;
2416;SDS011;1219;48.736;9.330;2023-06-26T04:05:58;11.67;;;8.03;;
2416;SDS011;1219;48.736;9.330;2023-06-26T04:08:24;9.30;;;8.30;;
2416;SDS011;1219;48.736;9.330;2023-06-26T04:10:53;9.77;;;8.30;;
2416;SDS011;1219;48.736;9.330;2023-06-26T04:13:22;12.83;;;9.10;;
2416;SDS011;1219;48.736;9.330;2023-06-26T04:15:48;10.80;;;8.90;;
2416;SDS011;1219;48.736;9.330;2023-06-26T04:18:14;9.80;;;8.90;;
2416;SDS011;1219;48.736;9.330;2023-06-26T04:20:41;10.20;;;9.03;;
2416;SDS011;1219;48.736;9.330;2023-06-26T04:23:26;8.80;;;7.90;;
2416;SDS011;1219;48.736;9.330;2023-06-26T04:25:51;8.77;;;7.97;;
2416;SDS011;1219;48.736;9.330;2023-06-26T04:28:17;9.80;;;8.80;;
2416;SDS011;1219;48.736;9.330;2023-06-26T04:30:43;10.20;;;9.17;;
2416;SDS011;1219;48.736;9.330;2023-06-26T04:33:09;13.23;;;9.50;;
2416;SDS011;1219;48.736;9.330;2023-06-26T04:35:37;9.67;;;8.40;;
2416;SDS011;1219;48.736;9.330;2023-06-26T04:38:02;11.20;;;8.53;;
2416;SDS011;1219;48.736;9.330;2023-06-26T04:40:30;8.90;;;8.07;;
2416;SDS011;1219;48.736;9.330;2023-06-26T04:42:56;10.03;;;8.83;;
2416;SDS011;1219;48.736;9.330;2023-06-26T04:45:22;9.40;;;8.40;;
2416;SDS011;1219;48.736;9.330;2023-06-26T04:47:48;11.07;;;8.90;;
2416;SDS011;1219;48.736;9.330;2023-06-26T04:50:14;11.47;;;9.47;;
2416;SDS011;1219;48.736;9.330;2023-06-26T04:52:43;9.87;;;8.90;;
2416;SDS011;1219;48.736;9.330;2023-06-26T04:55:09;9.33;;;8.37;;
2416;SDS011;1219;48.736;9.330;2023-06-26T04:57:35;8.70;;;8.00;;
2416;SDS011;1219;48.736;9.330;2023-06-26T05:00:02;10.83;;;8.60;;
2416;SDS011;1219;48.736;9.330;2023-06-26T05:02:34;9.33;;;8.43;;
2416;SDS011;1219;48.736;9.330;2023-06-26T05:05:00;10.83;;;8.97;;
2416;SDS011;1219;48.736;9.330;2023-06-26T05:07:25;9.10;;;8.20;;
2416;SDS011;1219;48.736;9.330;2023-06-26T05:09:51;10.17;;;8.23;;
2416;SDS011;1219;48.736;9.330;2023-06-26T05:12:17;9.97;;;9.07;;
2416;SDS011;1219;48.736;9.330;2023-06-26T05:14:43;8.87;;;8.07;;
2416;SDS011;1219;48.736;9.330;2023-06-26T05:17:10;8.90;;;8.00;;
2416;SDS011;1219;48.736;9.330;2023-06-26T05:19:36;9.57;;;8.77;;
2416;SDS011;1219;48.736;9.330;2023-06-26T05:22:02;8.97;;;8.20;;
2416;SDS011;1219;48.736;9.330;2023-06-26T05:24:32;10.67;;;9.50;;
2416;SDS011;1219;48.736;9.330;2023-06-26T05:26:58;11.63;;;8.83;;
2416;SDS011;1219;48.736;9.330;2023-06-26T05:29:24;14.27;;;8.57;;
2416;SDS011;1219;48.736;9.330;2023-06-26T05:31:50;10.20;;;8.90;;
2416;SDS011;1219;48.736;9.330;2023-06-26T05:34:17;9.10;;;8.30;;
2416;SDS011;1219;48.736;9.330;2023-06-26T05:36:45;13.90;;;8.13;;
2416;SDS011;1219;48.736;9.330;2023-06-26T05:39:13;8.40;;;7.70;;
2416;SDS011;1219;48.736;9.330;2023-06-26T05:41:39;8.93;;;8.00;;
2416;SDS011;1219;48.736;9.330;2023-06-26T05:44:05;8.60;;;7.80;;
2416;SDS011;1219;48.736;9.330;2023-06-26T05:46:31;8.80;;;7.70;;
2416;SDS011;1219;48.736;9.330;2023-06-26T05:48:57;9.67;;;8.67;;
2416;SDS011;1219;48.736;9.330;2023-06-26T05:51:23;9.17;;;8.20;;
2416;SDS011;1219;48.736;9.330;2023-06-26T05:53:49;8.07;;;7.33;;
2416;SDS011;1219;48.736;9.330;2023-06-26T05:56:15;8.80;;;8.10;;
2416;SDS011;1219;48.736;9.330;2023-06-26T05:58:42;8.77;;;7.87;;
2416;SDS011;1219;48.736;9.330;2023-06-26T06:01:09;12.47;;;7.77;;
2416;SDS011;1219;48.736;9.330;2023-06-26T06:03:35;15.97;;;8.67;;
2416;SDS011;1219;48.736;9.330;2023-06-26T06:06:01;8.30;;;7.50;;
2416;SDS011;1219;48.736;9.330;2023-06-26T06:08:27;8.50;;;7.70;;
2416;SDS011;1219;48.736;9.330;2023-06-26T06:10:53;8.20;;;7.40;;
2416;SDS011;1219;48.736;9.330;2023-06-26T06:13:19;8.93;;;7.97;;
2416;SDS011;1219;48.736;9.330;2023-06-26T06:15:45;8.83;;;7.77;;
2416;SDS011;1219;48.736;9.330;2023-06-26T06:18:11;9.00;;;8.20;;
2416;SDS011;1219;48.736;9.330;2023-06-26T06:20:37;9.27;;;8.33;;
2416;SDS011;1219;48.736;9.330;2023-06-26T06:23:03;9.20;;;8.33;;
2416;SDS011;1219;48.736;9.330;2023-06-26T06:25:29;8.90;;;8.10;;
2416;SDS011;1219;48.736;9.330;2023-06-26T06:27:55;9.43;;;8.63;;
2416;SDS011;1219;48.736;9.330;2023-06-26T06:30:21;8.93;;;8.13;;
2416;SDS011;1219;48.736;9.330;2023-06-26T06:32:47;12.47;;;7.57;;
2416;SDS011;1219;48.736;9.330;2023-06-26T06:35:16;8.00;;;7.30;;
2416;SDS011;1219;48.736;9.330;2023-06-26T06:37:42;9.67;;;8.77;;
2416;SDS011;1219;48.736;9.330;2023-06-26T06:40:11;9.00;;;8.10;;
2416;SDS011;1219;48.736;9.330;2023-06-26T06:42:37;8.40;;;7.53;;
2416;SDS011;1219;48.736;9.330;2023-06-26T06:45:03;8.40;;;7.77;;
2416;SDS011;1219;48.736;9.330;2023-06-26T06:47:29;8.53;;;7.63;;
2416;SDS011;1219;48.736;9.330;2023-06-26T06:49:55;9.23;;;8.47;;
2416;SDS011;1219;48.736;9.330;2023-06-26T06:52:21;9.63;;;8.63;;
2416;SDS011;1219;48.736;9.330;2023-06-26T06:54:51;8.57;;;7.87;;
2416;SDS011;1219;48.736;9.330;2023-06-26T06:57:17;9.97;;;8.97;;
2416;SDS011;1219;48.736;9.330;2023-06-26T06:59:43;11.57;;;8.40;;
2416;SDS011;1219;48.736;9.330;2023-06-26T07:02:09;8.40;;;7.70;;
2416;SDS011;1219;48.736;9.330;2023-06-26T07:04:35;10.20;;;8.50;;
2416;SDS011;1219;48.736;9.330;2023-06-26T07:07:01;9.00;;;8.10;;
2416;SDS011;1219;48.736;9.330;2023-06-26T07:09:27;10.67;;;7.50;;
2416;SDS011;1219;48.736;9.330;2023-06-26T07:11:53;10.70;;;8.37;;
2416;SDS011;1219;48.736;9.330;2023-06-26T07:14:19;8.50;;;7.80;;
2416;SDS011;1219;48.736;9.330;2023-06-26T07:16:45;9.10;;;8.07;;
2416;SDS011;1219;48.736;9.330;2023-06-26T07:19:11;8.47;;;7.70;;
2416;SDS011;1219;48.736;9.330;2023-06-26T07:21:37;8.20;;;7.50;;
2416;SDS011;1219;48.736;9.330;2023-06-26T07:24:03;8.67;;;7.60;;
2416;SDS011;1219;48.736;9.330;2023-06-26T07:26:29;7.30;;;6.70;;
2416;SDS011;1219;48.736;9.330;2023-06-26T07:28:55;7.77;;;7.03;;
2416;SDS011;1219;48.736;9.330;2023-06-26T07:31:21;8.97;;;8.17;;
2416;SDS011;1219;48.736;9.330;2023-06-26T07:33:47;8.43;;;7.73;;
2416;SDS011;1219;48.736;9.330;2023-06-26T07:36:13;9.20;;;7.47;;
2416;SDS011;1219;48.736;9.330;2023-06-26T07:38:39;9.13;;;7.77;;
2416;SDS011;1219;48.736;9.330;2023-06-26T07:41:05;7.77;;;7.07;;
2416;SDS011;1219;48.736;9.330;2023-06-26T07:43:31;8.17;;;7.47;;
2416;SDS011;1219;48.736;9.330;2023-06-26T07:45:57;8.37;;;7.33;;
2416;SDS011;1219;48.736;9.330;2023-06-26T07:48:23;7.63;;;6.93;;
2416;SDS011;1219;48.736;9.330;2023-06-26T07:50:49;7.60;;;6.97;;
2416;SDS011;1219;48.736;9.330;2023-06-26T07:53:15;8.90;;;8.10;;
2416;SDS011;1219;48.736;9.330;2023-06-26T07:55:42;7.73;;;7.20;;
2416;SDS011;1219;48.736;9.330;2023-06-26T07:58:08;7.63;;;7.03;;
2416;SDS011;1219;48.736;9.330;2023-06-26T08:00:34;9.67;;;8.70;;
2416;SDS011;1219;48.736;9.330;2023-06-26T08:03:00;8.20;;;7.40;;
2416;SDS011;1219;48.736;9.330;2023-06-26T08:05:26;9.80;;;7.10;;
2416;SDS011;1219;48.736;9.330;2023-06-26T08:07:52;7.43;;;6.83;;
2416;SDS011;1219;48.736;9.330;2023-06-26T08:10:18;8.07;;;7.37;;
2416;SDS011;1219;48.736;9.330;2023-06-26T08:12:44;8.00;;;7.30;;
2416;SDS011;1219;48.736;9.330;2023-06-26T08:15:11;7.23;;;6.53;;
2416;SDS011;1219;48.736;9.330;2023-06-26T08:17:37;7.03;;;6.53;;
2416;SDS011;1219;48.736;9.330;2023-06-26T08:20:04;6.97;;;6.53;;
2416;SDS011;1219;48.736;9.330;2023-06-26T08:22:32;7.10;;;6.60;;
2416;SDS011;1219;48.736;9.330;2023-06-26T08:24:58;7.90;;;6.67;;
2416;SDS011;1219;48.736;9.330;2023-06-26T08:27:24;11.03;;;6.43;;
2416;SDS011;1219;48.736;9.330;2023-06-26T08:29:50;7.17;;;6.57;;
2416;SDS011;1219;48.736;9.330;2023-06-26T08:32:16;7.50;;;6.80;;
2416;SDS011;1219;48.736;9.330;2023-06-26T08:34:42;6.93;;;6.20;;
2416;SDS011;1219;48.736;9.330;2023-06-26T08:37:08;6.80;;;6.30;;
2416;SDS011;1219;48.736;9.330;2023-06-26T08:39:35;9.00;;;7.70;;
2416;SDS011;1219;48.736;9.330;2023-06-26T08:42:00;7.00;;;6.47;;
2416;SDS011;1219;48.736;9.330;2023-06-26T08:44:26;7.70;;;6.93;;
2416;SDS011;1219;48.736;9.330;2023-06-26T08:46:52;6.50;;;6.00;;
2416;SDS011;1219;48.736;9.330;2023-06-26T08:49:25;6.40;;;5.90;;
2416;SDS011;1219;48.736;9.330;2023-06-26T08:51:58;6.63;;;6.13;;
2416;SDS011;1219;48.736;9.330;2023-06-26T08:54:27;6.30;;;5.83;;
2416;SDS011;1219;48.736;9.330;2023-06-26T08:56:53;6.90;;;5.63;;
2416;SDS011;1219;48.736;9.330;2023-06-26T08:59:20;7.17;;;6.67;;
2416;SDS011;1219;48.736;9.330;2023-06-26T09:01:46;6.57;;;6.00;;
2416;SDS011;1219;48.736;9.330;2023-06-26T09:04:12;6.00;;;5.50;;
2416;SDS011;1219;48.736;9.330;2023-06-26T09:06:39;6.33;;;5.93;;
2416;SDS011;1219;48.736;9.330;2023-06-26T09:09:05;6.63;;;6.07;;
2416;SDS011;1219;48.736;9.330;2023-06-26T09:11:31;6.47;;;6.03;;
2416;SDS011;1219;48.736;9.330;2023-06-26T09:13:57;6.50;;;5.77;;
2416;SDS011;1219;48.736;9.330;2023-06-26T09:16:26;8.67;;;6.93;;
2416;SDS011;1219;48.736;9.330;2023-06-26T09:18:52;6.53;;;6.13;;
2416;SDS011;1219;48.736;9.330;2023-06-26T09:21:18;6.23;;;5.73;;
2416;SDS011;1219;48.736;9.330;2023-06-26T09:23:44;6.07;;;5.57;;
2416;SDS011;1219;48.736;9.330;2023-06-26T09:26:11;6.60;;;5.90;;
2416;SDS011;1219;48.736;9.330;2023-06-26T09:28:37;5.60;;;5.30;;
2416;SDS011;1219;48.736;9.330;2023-06-26T09:31:04;6.23;;;5.63;;
2416;SDS011;1219;48.736;9.330;2023-06-26T09:33:35;7.60;;;6.83;;
2416;SDS011;1219;48.736;9.330;2023-06-26T09:36:01;6.10;;;5.60;;
2416;SDS011;1219;48.736;9.330;2023-06-26T09:38:28;7.57;;;5.53;;
2416;SDS011;1219;48.736;9.330;2023-06-26T09:40:54;6.50;;;5.83;;
2416;SDS011;1219;48.736;9.330;2023-06-26T09:43:20;6.23;;;5.83;;
2416;SDS011;1219;48.736;9.330;2023-06-26T09:45:46;6.53;;;5.77;;
2416;SDS011;1219;48.736;9.330;2023-06-26T09:48:13;6.80;;;6.20;;
2416;SDS011;1219;48.736;9.330;2023-06-26T09:50:41;6.90;;;6.40;;
2416;SDS011;1219;48.736;9.330;2023-06-26T09:53:08;9.03;;;5.60;;
2416;SDS011;1219;48.736;9.330;2023-06-26T09:55:34;5.60;;;5.30;;
2416;SDS011;1219;48.736;9.330;2023-06-26T09:58:02;6.20;;;5.70;;
2416;SDS011;1219;48.736;9.330;2023-06-26T10:00:29;10.37;;;5.07;;
2416;SDS011;1219;48.736;9.330;2023-06-26T10:02:55;5.27;;;4.90;;
2416;SDS011;1219;48.736;9.330;2023-06-26T10:05:21;6.27;;;5.77;;
2416;SDS011;1219;48.736;9.330;2023-06-26T10:07:47;7.07;;;6.47;;
2416;SDS011;1219;48.736;9.330;2023-06-26T10:10:13;5.80;;;5.30;;
2416;SDS011;1219;48.736;9.330;2023-06-26T10:12:40;5.23;;;4.93;;
2416;SDS011;1219;48.736;9.330;2023-06-26T10:15:07;5.67;;;5.17;;
2416;SDS011;1219;48.736;9.330;2023-06-26T10:17:37;5.40;;;4.90;;
2416;SDS011;1219;48.736;9.330;2023-06-26T10:20:04;7.43;;;5.27;;
2416;SDS011;1219;48.736;9.330;2023-06-26T10:22:33;6.00;;;4.90;;
2416;SDS011;1219;48.736;9.330;2023-06-26T10:25:00;4.83;;;4.53;;
2416;SDS011;1219;48.736;9.330;2023-06-26T10:27:29;5.30;;;5.00;;
2416;SDS011;1219;48.736;9.330;2023-06-26T10:29:59;5.60;;;5.20;;
2416;SDS011;1219;48.736;9.330;2023-06-26T10:32:26;4.57;;;3.87;;
2416;SDS011;1219;48.736;9.330;2023-06-26T10:34:53;5.70;;;5.40;;
2416;SDS011;1219;48.736;9.330;2023-06-26T10:37:20;6.20;;;5.60;;
2416;SDS011;1219;48.736;9.330;2023-06-26T10:39:47;5.30;;;5.00;;
2416;SDS011;1219;48.736;9.330;2023-06-26T10:42:14;6.07;;;5.47;;
2416;SDS011;1219;48.736;9.330;2023-06-26T10:44:41;6.70;;;5.50;;
2416;SDS011;1219;48.736;9.330;2023-06-26T10:47:08;5.23;;;4.93;;
2416;SDS011;1219;48.736;9.330;2023-06-26T10:49:34;5.73;;;5.20;;
2416;SDS011;1219;48.736;9.330;2023-06-26T10:52:01;7.70;;;5.87;;
2416;SDS011;1219;48.736;9.330;2023-06-26T10:54:31;6.03;;;5.53;;
2416;SDS011;1219;48.736;9.330;2023-06-26T10:56:58;6.67;;;6.00;;
2416;SDS011;1219;48.736;9.330;2023-06-26T10:59:25;6.33;;;5.83;;
2416;SDS011;1219;48.736;9.330;2023-06-26T11:01:58;10.53;;;6.50;;
2416;SDS011;1219;48.736;9.330;2023-06-26T11:07:19;6.30;;;5.90;;
2416;SDS011;1219;48.736;9.330;2023-06-26T11:09:58;5.80;;;5.40;;
2416;SDS011;1219;48.736;9.330;2023-06-26T11:12:34;6.37;;;5.73;;
2416;SDS011;1219;48.736;9.330;2023-06-26T11:15:01;7.30;;;6.40;;
2416;SDS011;1219;48.736;9.330;2023-06-26T11:17:27;6.10;;;5.60;;
2416;SDS011;1219;48.736;9.330;2023-06-26T11:19:54;5.80;;;5.40;;
2416;SDS011;1219;48.736;9.330;2023-06-26T11:22:20;6.20;;;5.70;;
2416;SDS011;1219;48.736;9.330;2023-06-26T11:24:48;5.57;;;5.27;;
2416;SDS011;1219;48.736;9.330;2023-06-26T11:27:14;5.40;;;5.10;;
2416;SDS011;1219;48.736;9.330;2023-06-26T11:29:46;5.25;;;4.95;;
2416;SDS011;1219;48.736;9.330;2023-06-26T11:32:13;5.53;;;5.22;;
2416;SDS011;1219;48.736;9.330;2023-06-26T11:34:39;5.63;;;5.22;;
2416;SDS011;1219;48.736;9.330;2023-06-26T11:37:07;6.93;;;5.30;;
2416;SDS011;1219;48.736;9.330;2023-06-26T11:39:33;8.00;;;5.70;;
2416;SDS011;1219;48.736;9.330;2023-06-26T11:42:00;7.70;;;4.77;;
2416;SDS011;1219;48.736;9.330;2023-06-26T11:44:30;6.10;;;5.50;;
2416;SDS011;1219;48.736;9.330;2023-06-26T11:46:56;6.80;;;5.33;;
2416;SDS011;1219;48.736;9.330;2023-06-26T11:49:22;5.50;;;5.03;;
2416;SDS011;1219;48.736;9.330;2023-06-26T11:51:50;5.10;;;4.80;;
2416;SDS011;1219;48.736;9.330;2023-06-26T11:54:22;5.97;;;5.47;;
2416;SDS011;1219;48.736;9.330;2023-06-26T11:56:53;5.97;;;5.57;;
2416;SDS011;1219;48.736;9.330;2023-06-26T11:59:21;8.65;;;5.57;;
2416;SDS011;1219;48.736;9.330;2023-06-26T12:01:48;5.85;;;4.90;;
2416;SDS011;1219;48.736;9.330;2023-06-26T12:04:15;6.50;;;5.45;;
2416;SDS011;1219;48.736;9.330;2023-06-26T12:06:43;6.10;;;5.65;;
2416;SDS011;1219;48.736;9.330;2023-06-26T12:09:10;6.30;;;5.70;;
2416;SDS011;1219;48.736;9.330;2023-06-26T12:11:38;5.00;;;4.60;;
2416;SDS011;1219;48.736;9.330;2023-06-26T12:14:05;7.53;;;6.07;;
2416;SDS011;1219;48.736;9.330;2023-06-26T12:16:31;6.00;;;5.43;;
2416;SDS011;1219;48.736;9.330;2023-06-26T12:19:00;5.10;;;4.80;;
2416;SDS011;1219;48.736;9.330;2023-06-26T12:23:59;6.28;;;5.68;;
2416;SDS011;1219;48.736;9.330;2023-06-26T12:26:26;5.57;;;5.18;;
2416;SDS011;1219;48.736;9.330;2023-06-26T12:28:53;5.35;;;4.93;;
2416;SDS011;1219;48.736;9.330;2023-06-26T12:31:20;4.97;;;4.57;;
2416;SDS011;1219;48.736;9.330;2023-06-26T12:33:47;6.05;;;5.32;;
2416;SDS011;1219;48.736;9.330;2023-06-26T12:36:13;7.60;;;5.82;;
2416;SDS011;1219;48.736;9.330;2023-06-26T12:38:44;5.50;;;5.07;;
2416;SDS011;1219;48.736;9.330;2023-06-26T12:41:13;6.90;;;4.82;;
2416;SDS011;1219;48.736;9.330;2023-06-26T12:43:39;5.95;;;5.43;;
2416;SDS011;1219;48.736;9.330;2023-06-26T12:46:06;6.10;;;5.63;;
2416;SDS011;1219;48.736;9.330;2023-06-26T12:48:42;5.35;;;4.90;;
2416;SDS011;1219;48.736;9.330;2023-06-26T12:51:15;5.72;;;5.22;;
2416;SDS011;1219;48.736;9.330;2023-06-26T12:53:42;6.05;;;4.88;;
2416;SDS011;1219;48.736;9.330;2023-06-26T12:56:09;5.35;;;4.75;;
2416;SDS011;1219;48.736;9.330;2023-06-26T12:58:35;5.22;;;4.80;;
2416;SDS011;1219;48.736;9.330;2023-06-26T13:01:05;5.20;;;4.80;;
2416;SDS011;1219;48.736;9.330;2023-06-26T13:03:39;5.80;;;5.40;;
2416;SDS011;1219;48.736;9.330;2023-06-26T13:06:05;5.15;;;4.75;;
2416;SDS011;1219;48.736;9.330;2023-06-26T13:08:33;6.22;;;4.90;;
2416;SDS011;1219;48.736;9.330;2023-06-26T13:10:59;5.18;;;4.88;;
2416;SDS011;1219;48.736;9.330;2023-06-26T13:13:25;6.00;;;5.22;;
2416;SDS011;1219;48.736;9.330;2023-06-26T13:15:52;4.97;;;4.57;;
2416;SDS011;1219;48.736;9.330;2023-06-26T13:18:18;4.90;;;4.50;;
2416;SDS011;1219;48.736;9.330;2023-06-26T13:20:44;5.65;;;5.15;;
2416;SDS011;1219;48.736;9.330;2023-06-26T13:23:10;5.30;;;4.90;;
2416;SDS011;1219;48.736;9.330;2023-06-26T13:25:36;6.68;;;4.78;;
2416;SDS011;1219;48.736;9.330;2023-06-26T13:28:02;4.68;;;4.38;;
2416;SDS011;1219;48.736;9.330;2023-06-26T13:30:27;4.95;;;4.45;;
2416;SDS011;1219;48.736;9.330;2023-06-26T13:32:54;4.63;;;4.32;;
2416;SDS011;1219;48.736;9.330;2023-06-26T13:35:20;6.82;;;4.30;;
2416;SDS011;1219;48.736;9.330;2023-06-26T13:37:46;9.07;;;4.82;;
2416;SDS011;1219;48.736;9.330;2023-06-26T13:40:12;5.30;;;4.80;;
2416;SDS011;1219;48.736;9.330;2023-06-26T13:42:38;4.68;;;4.15;;
2416;SDS011;1219;48.736;9.330;2023-06-26T13:45:05;6.38;;;5.78;;
2416;SDS011;1219;48.736;9.330;2023-06-26T13:47:31;5.97;;;5.38;;
2416;SDS011;1219;48.736;9.330;2023-06-26T13:49:59;6.45;;;4.28;;
2416;SDS011;1219;48.736;9.330;2023-06-26T13:52:25;5.97;;;4.63;;
2416;SDS011;1219;48.736;9.330;2023-06-26T13:54:51;4.63;;;4.22;;
2416;SDS011;1219;48.736;9.330;2023-06-26T13:57:17;4.93;;;4.43;;
2416;SDS011;1219;48.736;9.330;2023-06-26T13:59:44;5.47;;;5.15;;
2416;SDS011;1219;48.736;9.330;2023-06-26T14:02:10;5.37;;;4.87;;
2416;SDS011;1219;48.736;9.330;2023-06-26T14:04:36;5.05;;;4.65;;
2416;SDS011;1219;48.736;9.330;2023-06-26T14:07:02;5.57;;;4.90;;
2416;SDS011;1219;48.736;9.330;2023-06-26T14:09:28;6.05;;;4.97;;
2416;SDS011;1219;48.736;9.330;2023-06-26T14:11:54;4.88;;;4.57;;
2416;SDS011;1219;48.736;9.330;2023-06-26T14:14:20;5.70;;;4.85;;
2416;SDS011;1219;48.736;9.330;2023-06-26T14:16:46;4.05;;;3.85;;
2416;SDS011;1219;48.736;9.330;2023-06-26T14:19:13;4.20;;;3.80;;
2416;SDS011;1219;48.736;9.330;2023-06-26T14:21:42;4.07;;;3.80;;
2416;SDS011;1219;48.736;9.330;2023-06-26T14:24:08;5.50;;;5.13;;
2416;SDS011;1219;48.736;9.330;2023-06-26T14:26:34;4.90;;;4.50;;
2416;SDS011;1219;48.736;9.330;2023-06-26T14:29:01;4.67;;;4.37;;
2416;SDS011;1219;48.736;9.330;2023-06-26T14:31:27;3.57;;;3.37;;
2416;SDS011;1219;48.736;9.330;2023-06-26T14:33:53;4.20;;;3.65;;
2416;SDS011;1219;48.736;9.330;2023-06-26T14:36:19;3.90;;;3.58;;
2416;SDS011;1219;48.736;9.330;2023-06-26T14:38:45;4.28;;;3.97;;
2416;SDS011;1219;48.736;9.330;2023-06-26T14:41:11;4.60;;;3.00;;
2416;SDS011;1219;48.736;9.330;2023-06-26T14:43:38;4.13;;;3.83;;
2416;SDS011;1219;48.736;9.330;2023-06-26T14:46:04;3.73;;;3.53;;
2416;SDS011;1219;48.736;9.330;2023-06-26T14:48:30;4.43;;;4.00;;
2416;SDS011;1219;48.736;9.330;2023-06-26T14:50:56;3.38;;;3.08;;
2416;SDS011;1219;48.736;9.330;2023-06-26T14:53:22;2.97;;;2.78;;
2416;SDS011;1219;48.736;9.330;2023-06-26T14:55:49;3.40;;;3.10;;
2416;SDS011;1219;48.736;9.330;2023-06-26T14:58:15;3.13;;;2.92;;
2416;SDS011;1219;48.736;9.330;2023-06-26T15:00:41;4.80;;;2.70;;
2416;SDS011;1219;48.736;9.330;2023-06-26T15:03:08;3.83;;;2.92;;
2416;SDS011;1219;48.736;9.330;2023-06-26T15:05:34;2.92;;;2.63;;
2416;SDS011;1219;48.736;9.330;2023-06-26T15:08:00;3.13;;;2.88;;
2416;SDS011;1219;48.736;9.330;2023-06-26T15:10:26;3.33;;;2.75;;
2416;SDS011;1219;48.736;9.330;2023-06-26T15:12:53;3.58;;;3.00;;
2416;SDS011;1219;48.736;9.330;2023-06-26T15:15:19;2.83;;;2.63;;
2416;SDS011;1219;48.736;9.330;2023-06-26T15:17:45;2.90;;;2.70;;
2416;SDS011;1219;48.736;9.330;2023-06-26T15:20:11;3.22;;;2.92;;
2416;SDS011;1219;48.736;9.330;2023-06-26T15:22:37;3.03;;;2.83;;